VABP/BHO METAR and TAF weather

Enter ICAO airport designator
Station Type Date Time Source
VABP METAR 2020/09/27 14:30 UTC NOAA

VABP 271430Z 33004KT 3000 BR SCT020 FEW030CB 27/25 Q1009 NOSIG


Station Type Date Time Source
VABP Decoded METAR 2020/09/27 14:30 UTC NOAA

Bhopal / Bairagarh, India (VABP) 23-17N 077-21E 523M
Sep 27, 2020 - 10:30 AM EDT / 2020.09.27 1430 UTC
Wind: from the NNW (330 degrees) at 5 MPH (4 KT):0
Visibility: 1 mile(s):0
Sky conditions: partly cloudy
Weather: mist; Cumulonimbus clouds observed
Temperature: 80 F (27 C)
Dew Point: 77 F (25 C)
Relative Humidity: 88%
Pressure (altimeter): 29.80 in. Hg (1009 hPa)
ob: VABP 271430Z 33004KT 3000 BR SCT020 FEW030CB 27/25 Q1009 NOSIG
cycle: 14

Station Type Date Time Source
VABP TAF 2020/03/26 12:00 UTC NOAA

TAF VABP 261100Z 2612/2718 14005KT 6000 SCT030 BKN100
BECMG 2615/2617 22005KT FEW030 SCT100
BECMG 2618/2620 05005KT FEW030 BKN100
BECMG 2703/2705 12005KT FEW030 SCT100
BECMG 2706/2708 14005KT 6000 SCT030 BKN100
TEMPO 2611/2613 14010G20KT 3000 -RA/TSRA FEW030CB SCT030 BKN100

Example: see airport list